Time;durP1;ratioP1;P1;durP2;ratioP2;P2;SDS_P1;SDS_P2;PMS_P1;PMS_P2;Temp;Humidity;BMP_temperature;BMP_pressure;BME280_temperature;BME280_humidity;BME280_pressure;Samples;Min_cycle;Max_cycle;Signal;HPM_P1;HPM_P2
2021/04/06 00:01:46;;;;;;;6.93;1.23;;;;;;;1.60;80.55;99096.12;3600161;80;32260;-81
2021/04/06 00:06:51;;;;;;;7.17;1.27;;;;;;;1.59;80.33;99105.39;3594380;80;97916;-81
2021/04/06 00:11:57;;;;;;;3.87;1.40;;;;;;;1.60;80.22;99117.81;3600549;80;31960;-80
2021/04/06 00:17:01;;;;;;;4.92;1.40;;;;;;;1.70;79.99;99125.42;3588147;80;98248;-81
2021/04/06 00:22:05;;;;;;;6.83;1.60;;;;;;;1.75;79.74;99129.23;3586648;80;32424;-82
2021/04/06 00:27:20;;;;;;;7.03;2.17;;;;;;;1.70;79.73;99128.14;3593082;80;98081;-81
2021/04/06 00:32:23;;;;;;;7.67;1.60;;;;;;;1.66;79.82;99137.55;3598969;80;98390;-83
2021/04/06 00:37:25;;;;;;;8.00;1.90;;;;;;;1.60;80.48;99147.05;3513098;82;32221;-82
2021/04/06 00:42:28;;;;;;;4.47;1.13;;;;;;;1.56;80.25;99131.28;3506452;82;98097;-82
2021/04/06 00:47:30;;;;;;;10.13;1.50;;;;;;;1.59;80.68;99144.12;3511237;82;32411;-83
2021/04/06 00:52:32;;;;;;;6.60;1.40;;;;;;;1.62;80.61;99152.93;3501938;82;98060;-84
2021/04/06 00:57:34;;;;;;;8.40;1.50;;;;;;;1.56;80.67;99156.23;3514818;82;32768;-82
2021/04/06 01:02:34;;;;;;;6.33;2.13;;;;;;;1.56;80.86;99166.52;3506142;82;97826;-83
2021/04/06 01:07:37;;;;;;;13.27;1.50;;;;;;;1.63;80.51;99168.05;3518293;82;31723;-82
2021/04/06 01:12:38;;;;;;;9.77;1.57;;;;;;;1.70;80.12;99162.80;3514316;82;98599;-82
2021/04/06 01:17:40;;;;;;;13.37;3.53;;;;;;;1.70;79.44;99173.66;3524915;82;31735;-83
2021/04/06 01:22:47;;;;;;;7.40;1.55;;;;;;;1.64;78.98;99175.05;3518502;82;98268;-83
2021/04/06 01:27:49;;;;;;;8.65;2.15;;;;;;;1.60;78.70;99181.52;3526481;82;26138;-81
2021/04/06 01:32:54;;;;;;;12.77;1.73;;;;;;;1.58;78.28;99183.80;3520221;82;98002;-83
2021/04/06 01:37:58;;;;;;;6.30;1.60;;;;;;;1.58;78.07;99193.30;3527858;82;31809;-83
2021/04/06 01:43:00;;;;;;;9.17;2.63;;;;;;;1.58;77.73;99188.64;3531883;82;97462;-83
2021/04/06 01:48:01;;;;;;;5.83;1.50;;;;;;;1.57;77.57;99195.77;3530291;82;31737;-84
2021/04/06 01:53:03;;;;;;;6.33;1.20;;;;;;;1.57;76.98;99199.27;3521485;82;98551;-83
2021/04/06 01:58:05;;;;;;;7.33;1.17;;;;;;;1.56;76.86;99208.55;3532592;82;32493;-82
2021/04/06 02:03:09;;;;;;;10.10;1.32;;;;;;;1.55;76.98;99208.34;3528393;82;98314;-84
2021/04/06 02:08:13;;;;;;;8.73;2.20;;;;;;;1.54;76.78;99210.03;3528121;82;32548;-83
2021/04/06 02:13:15;;;;;;;6.77;1.23;;;;;;;1.50;76.36;99214.00;3523698;82;98144;-83
2021/04/06 02:18:24;;;;;;;7.53;2.13;;;;;;;1.51;76.39;99215.58;3528415;82;32071;-83
2021/04/06 02:23:27;;;;;;;9.30;1.37;;;;;;;1.51;76.29;99217.48;3518111;82;98495;-82
2021/04/06 02:28:28;;;;;;;9.20;1.97;;;;;;;1.51;76.49;99221.00;3517469;82;32454;-81
2021/04/06 02:33:31;;;;;;;12.68;2.35;;;;;;;1.50;76.12;99232.98;3495392;81;97859;-82
2021/04/06 02:38:36;;;;;;;10.23;2.87;;;;;;;1.49;76.20;99236.03;3511870;83;32245;-82
2021/04/06 02:43:50;;;;;;;10.60;1.80;;;;;;;1.50;76.08;99234.89;3487744;82;98309;-81
2021/04/06 02:48:53;;;;;;;8.70;1.20;;;;;;;1.49;76.11;99235.45;3508856;83;31792;-82
2021/04/06 02:53:54;;;;;;;11.73;1.60;;;;;;;1.50;75.98;99243.83;3495196;82;97820;-88
2021/04/06 02:58:57;;;;;;;14.23;1.63;;;;;;;1.48;75.72;99235.81;3495854;83;31718;-82
2021/04/06 03:03:58;;;;;;;9.40;1.80;;;;;;;1.46;75.57;99247.00;3500163;83;98121;-82
2021/04/06 03:08:59;;;;;;;8.67;1.40;;;;;;;1.45;75.69;99251.40;3503769;83;31765;-82
2021/04/06 03:13:59;;;;;;;8.60;1.60;;;;;;;1.40;75.52;99244.31;3497815;81;98093;-83
2021/04/06 03:19:05;;;;;;;8.67;2.23;;;;;;;1.40;75.45;99253.00;3506339;82;31724;-83
2021/04/06 03:24:08;;;;;;;5.83;1.43;;;;;;;1.35;75.43;99248.63;3491513;82;98599;-82
2021/04/06 03:29:10;;;;;;;8.07;1.50;;;;;;;1.33;75.59;99257.67;3524389;82;31816;-83
2021/04/06 03:34:11;;;;;;;8.48;1.50;;;;;;;1.34;75.80;99256.53;3518865;82;98621;-85
2021/04/06 03:39:13;;;;;;;8.20;2.13;;;;;;;1.29;75.92;99264.91;3511373;82;31822;-81
2021/04/06 03:44:14;;;;;;;6.93;2.50;;;;;;;1.28;76.00;99272.02;3517784;82;98298;-80
2021/04/06 03:49:27;;;;;;;8.87;1.57;;;;;;;1.22;76.13;99276.87;3523933;82;31711;-82
2021/04/06 03:54:38;;;;;;;8.30;2.20;;;;;;;1.20;76.27;99284.56;3512851;81;97819;-82
2021/04/06 03:59:38;;;;;;;8.67;1.80;;;;;;;1.12;76.53;99284.70;3510948;82;32287;-81
2021/04/06 04:04:39;;;;;;;8.98;1.52;;;;;;;1.09;76.59;99288.88;3517305;82;98282;-82
2021/04/06 04:09:40;;;;;;;6.20;1.50;;;;;;;1.05;76.32;99289.92;3521105;82;31763;-83
2021/04/06 04:14:41;;;;;;;5.33;1.67;;;;;;;1.05;76.54;99299.40;3514394;82;97909;-82
2021/04/06 04:19:42;;;;;;;7.83;1.20;;;;;;;1.00;76.46;99294.98;3521611;82;31003;-82
2021/04/06 04:24:42;;;;;;;7.30;1.70;;;;;;;0.96;76.58;99297.38;3517423;81;98219;-82
2021/04/06 04:29:43;;;;;;;7.10;1.50;;;;;;;0.93;76.68;99300.20;3536415;82;28965;-81
2021/04/06 04:34:44;;;;;;;3.70;1.20;;;;;;;0.91;76.84;99292.98;3536829;82;98148;-83
2021/04/06 04:39:44;;;;;;;9.03;1.80;;;;;;;0.87;76.52;99300.75;3541524;82;35057;-83
2021/04/06 04:44:45;;;;;;;9.13;1.53;;;;;;;0.82;76.64;99300.44;3532749;82;98462;-82
2021/04/06 04:49:46;;;;;;;3.40;1.17;;;;;;;0.81;76.64;99298.05;3532855;82;35549;-81
2021/04/06 04:54:47;;;;;;;8.80;1.87;;;;;;;0.80;76.66;99302.70;3518991;82;98368;-81
2021/04/06 04:59:47;;;;;;;8.87;1.30;;;;;;;0.80;76.64;99299.19;3539318;82;35233;-84
2021/04/06 05:04:49;;;;;;;6.37;1.70;;;;;;;0.76;76.50;99312.63;3537189;82;98255;-86
2021/04/06 05:09:49;;;;;;;5.40;1.27;;;;;;;0.72;76.67;99308.23;3533897;81;32986;-83
2021/04/06 05:14:51;;;;;;;7.08;2.02;;;;;;;0.70;76.64;99311.83;3526183;82;97799;-82
2021/04/06 05:19:52;;;;;;;8.33;1.90;;;;;;;0.69;76.85;99306.19;3534576;82;32748;-83
2021/04/06 05:24:52;;;;;;;5.23;1.60;;;;;;;0.67;76.81;99321.99;3526804;82;98141;-84
2021/04/06 05:29:53;;;;;;;9.60;1.70;;;;;;;0.72;76.97;99321.77;3538292;82;33269;-84
2021/04/06 05:34:54;;;;;;;11.30;1.43;;;;;;;0.71;76.93;99322.91;3533518;81;98085;-82
2021/04/06 05:39:55;;;;;;;6.97;2.03;;;;;;;0.71;76.82;99327.73;3537834;82;32667;-83
2021/04/06 05:44:57;;;;;;;5.10;1.43;;;;;;;0.73;76.89;99320.64;3530776;82;98144;-83
2021/04/06 05:50:01;;;;;;;10.83;2.27;;;;;;;0.80;76.99;99336.55;3542714;82;32736;-83
2021/04/06 05:55:06;;;;;;;8.00;1.53;;;;;;;0.86;76.75;99331.13;3523881;82;98273;-82
2021/04/06 06:00:09;;;;;;;13.23;2.30;;;;;;;0.90;76.90;99334.75;3544518;82;26004;-84
2021/04/06 06:05:12;;;;;;;8.77;1.83;;;;;;;0.95;76.71;99349.97;3531073;82;98458;-82
2021/04/06 06:10:33;;;;;;;11.63;2.57;;;;;;;0.95;76.50;99348.61;3535295;82;33354;-82
2021/04/06 06:15:34;;;;;;;6.37;2.10;;;;;;;0.98;76.63;99348.72;3529458;82;98528;-83
2021/04/06 06:20:36;;;;;;;6.50;2.30;;;;;;;1.03;76.77;99344.98;3533276;82;33215;-82
2021/04/06 06:25:37;;;;;;;7.97;1.77;;;;;;;1.08;76.52;99342.84;3520514;82;98206;-83
2021/04/06 06:30:39;;;;;;;7.43;1.80;;;;;;;1.14;76.61;99336.06;3524533;82;32677;-86
2021/04/06 06:35:42;;;;;;;11.47;2.77;;;;;;;1.26;76.47;99333.91;3517939;79;98146;-84
2021/04/06 06:40:46;;;;;;;12.43;2.97;;;;;;;1.31;76.09;99333.09;3518300;82;32666;-81
2021/04/06 06:45:49;;;;;;;9.20;2.10;;;;;;;1.43;76.37;99326.86;3520024;82;98126;-82
2021/04/06 06:50:51;;;;;;;15.23;5.30;;;;;;;1.57;75.92;99329.41;3528902;81;32966;-83
2021/04/06 06:55:52;;;;;;;8.87;1.80;;;;;;;1.65;75.85;99325.76;3499656;82;98064;-83
2021/04/06 07:00:53;;;;;;;9.60;2.43;;;;;;;1.75;75.46;99334.77;3531371;81;32731;-82
2021/04/06 07:05:54;;;;;;;11.78;2.60;;;;;;;1.83;75.31;99338.47;3521074;82;97993;-83
2021/04/06 07:10:56;;;;;;;5.90;2.07;;;;;;;1.97;75.58;99348.37;3525138;81;32715;-82
2021/04/06 07:15:58;;;;;;;7.60;2.17;;;;;;;2.08;74.98;99348.86;3515267;82;98031;-83
2021/04/06 07:21:03;;;;;;;10.67;2.40;;;;;;;2.19;74.64;99352.64;3515133;82;33287;-84
2021/04/06 07:26:12;;;;;;;10.40;3.12;;;;;;;2.27;74.54;99355.78;3510158;81;98361;-84
2021/04/06 07:31:15;;;;;;;60.23;17.10;;;;;;;2.35;74.44;99360.83;3520134;82;33576;-84
2021/04/06 07:36:21;;;;;;;15.60;5.97;;;;;;;2.50;74.28;99360.04;3505979;80;98609;-84
2021/04/06 07:41:27;;;;;;;10.10;3.23;;;;;;;2.61;73.96;99367.33;3517108;82;32784;-84
2021/04/06 07:46:45;;;;;;;8.18;2.12;;;;;;;2.61;73.45;99373.32;3507013;82;98047;-85
2021/04/06 07:51:49;;;;;;;9.47;2.73;;;;;;;2.61;73.36;99359.74;3520494;82;32756;-83
2021/04/06 07:57:00;;;;;;;10.38;3.12;;;;;;;2.67;73.26;99354.30;3516606;81;97833;-84
2021/04/06 08:02:09;;;;;;;10.47;2.83;;;;;;;2.74;72.99;99355.81;3518248;82;32757;-82
2021/04/06 08:07:26;;;;;;;7.43;2.53;;;;;;;2.93;72.82;99348.53;3516492;82;98301;-85
2021/04/06 08:12:35;;;;;;;9.50;2.53;;;;;;;3.25;72.28;99356.05;3518455;79;98181;-84
2021/04/06 08:17:54;;;;;;;14.37;3.47;;;;;;;3.39;71.98;99352.30;3527008;82;32731;-83
2021/04/06 08:23:00;;;;;;;18.55;3.77;;;;;;;3.61;71.43;99356.47;3527041;82;98263;-82
2021/04/06 08:28:04;;;;;;;8.30;2.47;;;;;;;3.74;71.14;99366.65;3533048;82;26525;-84
2021/04/06 08:33:11;;;;;;;9.75;2.85;;;;;;;3.85;70.75;99356.21;3508016;82;98158;-85
2021/04/06 08:38:31;;;;;;;9.70;3.10;;;;;;;4.05;70.43;99361.84;3518167;82;33169;-84
2021/04/06 08:43:48;;;;;;;7.67;2.10;;;;;;;4.26;69.54;99354.09;3512395;82;98124;-84
2021/04/06 08:48:57;;;;;;;10.07;2.60;;;;;;;4.36;69.04;99356.23;3527163;82;25906;-84
2021/04/06 08:54:05;;;;;;;14.13;3.42;;;;;;;4.69;70.02;99344.16;3520300;82;98300;-83
2021/04/06 08:59:36;;;;;;;9.73;2.67;;;;;;;5.29;69.08;99341.03;3522478;82;33219;-83
2021/04/06 09:04:40;;;;;;;13.30;3.33;;;;;;;5.91;67.03;99341.11;3509054;82;98062;-85
2021/04/06 09:09:41;;;;;;;13.80;3.30;;;;;;;6.35;66.44;99332.44;3516137;82;32795;-82
2021/04/06 09:14:42;;;;;;;9.37;2.30;;;;;;;6.71;62.97;99334.33;3511302;82;98351;-84
2021/04/06 09:19:43;;;;;;;11.63;3.10;;;;;;;6.58;63.94;99325.41;3498030;82;33168;-85
2021/04/06 09:24:45;;;;;;;8.70;2.77;;;;;;;6.79;62.85;99343.38;3509345;82;98706;-87
2021/04/06 09:29:48;;;;;;;11.27;2.43;;;;;;;6.85;63.46;99343.23;3533327;82;32774;-82
2021/04/06 09:34:51;;;;;;;9.37;2.33;;;;;;;6.86;62.74;99342.06;3534862;81;98348;-82
2021/04/06 09:39:54;;;;;;;9.37;2.87;;;;;;;7.01;62.61;99337.71;3534463;82;33518;-83
2021/04/06 09:44:55;;;;;;;12.80;3.00;;;;;;;7.10;62.24;99342.86;3534989;82;98305;-85
2021/04/06 09:49:56;;;;;;;10.20;2.43;;;;;;;7.09;61.62;99339.32;3537047;82;32986;-86
2021/04/06 09:55:09;;;;;;;11.50;3.57;;;;;;;7.34;60.04;99335.39;3530354;81;98385;-85
2021/04/06 10:00:16;;;;;;;10.57;2.33;;;;;;;7.32;58.97;99330.29;3519383;82;31914;-86
2021/04/06 10:05:23;;;;;;;9.63;2.77;;;;;;;7.63;58.59;99334.41;3531059;81;98286;-84
2021/04/06 10:10:31;;;;;;;10.17;2.40;;;;;;;7.77;58.75;99330.34;3538937;82;25992;-83
2021/04/06 10:15:33;;;;;;;9.57;2.63;;;;;;;7.66;57.36;99325.41;3529950;82;98058;-86
2021/04/06 10:20:47;;;;;;;11.43;2.63;;;;;;;7.76;57.67;99323.31;3535212;82;32763;-85
2021/04/06 10:25:48;;;;;;;11.03;2.23;;;;;;;8.22;57.13;99315.48;3529535;82;98100;-84
2021/04/06 10:30:54;;;;;;;9.77;2.70;;;;;;;8.54;56.39;99312.79;3510579;81;30890;-85
2021/04/06 10:35:59;;;;;;;8.40;2.77;;;;;;;8.68;56.06;99303.98;3512459;82;97866;-84
2021/04/06 10:41:12;;;;;;;9.90;2.80;;;;;;;8.96;54.96;99301.84;3521882;82;26048;-84
2021/04/06 10:46:18;;;;;;;6.43;1.80;;;;;;;9.03;54.31;99297.70;3523038;81;97961;-84
2021/04/06 10:51:22;;;;;;;6.97;1.83;;;;;;;9.08;54.90;99304.17;3511697;82;26021;-83
2021/04/06 10:56:31;;;;;;;9.30;2.30;;;;;;;9.00;53.56;99298.52;3512454;82;97903;-86
2021/04/06 11:01:49;;;;;;;9.37;1.80;;;;;;;8.94;52.13;99294.60;3519624;82;26504;-85
2021/04/06 11:07:03;;;;;;;9.58;1.98;;;;;;;8.90;53.31;99293.81;3509967;82;98058;-85
2021/04/06 11:12:08;;;;;;;6.77;1.90;;;;;;;9.01;53.38;99278.13;3514764;82;26513;-85
2021/04/06 11:17:10;;;;;;;15.10;4.77;;;;;;;9.33;52.54;99280.22;3515137;82;98118;-82
2021/04/06 11:22:16;;;;;;;6.47;1.70;;;;;;;9.18;51.92;99286.91;3520256;82;26060;-83
2021/04/06 11:27:19;;;;;;;7.90;2.30;;;;;;;9.08;51.64;99291.83;3514212;81;97831;-86
2021/04/06 11:32:22;;;;;;;13.73;4.17;;;;;;;9.07;51.04;99294.38;3522694;80;97807;-85
2021/04/06 11:37:23;;;;;;;10.33;2.83;;;;;;;8.79;51.94;99286.17;3524507;82;25981;-84
2021/04/06 11:42:24;;;;;;;5.83;1.53;;;;;;;8.90;50.71;99278.72;3519200;82;98343;-85
2021/04/06 11:47:25;;;;;;;6.77;1.53;;;;;;;8.93;50.76;99275.17;3527372;82;26876;-84
2021/04/06 11:52:26;;;;;;;8.17;2.00;;;;;;;8.65;49.91;99280.67;3518438;80;97970;-85
2021/04/06 11:57:27;;;;;;;11.00;2.40;;;;;;;8.64;50.18;99290.88;3526042;82;32715;-84
2021/04/06 12:02:28;;;;;;;5.53;1.60;;;;;;;8.51;48.38;99281.45;3511091;82;98263;-86
2021/04/06 12:07:28;;;;;;;12.03;2.27;;;;;;;8.46;49.43;99285.95;3521792;82;33191;-85
2021/04/06 12:12:29;;;;;;;9.53;1.87;;;;;;;8.64;48.72;99275.80;3516194;81;98420;-88
2021/04/06 12:17:30;;;;;;;6.67;1.57;;;;;;;8.75;49.58;99280.69;3521454;82;32647;-84
2021/04/06 12:22:31;;;;;;;7.70;1.70;;;;;;;8.64;49.47;99271.68;3518724;82;98238;-86
2021/04/06 12:27:31;;;;;;;8.23;1.97;;;;;;;8.57;50.39;99270.28;3527630;82;25961;-85
2021/04/06 12:32:32;;;;;;;5.93;1.60;;;;;;;8.64;50.20;99268.14;3531622;81;107793;-85
2021/04/06 12:37:33;;;;;;;8.40;1.63;;;;;;;8.63;50.09;99263.84;3541456;82;26983;-85
2021/04/06 12:42:38;;;;;;;8.20;1.57;;;;;;;8.69;48.96;99254.04;3533090;82;103653;-85
2021/04/06 12:47:39;;;;;;;18.80;4.93;;;;;;;8.68;49.99;99246.39;3537547;82;28481;-86
2021/04/06 12:52:40;;;;;;;5.62;1.75;;;;;;;8.65;50.51;99247.77;3519513;81;98460;-85
2021/04/06 12:57:41;;;;;;;9.30;2.93;;;;;;;8.64;48.58;99241.52;3537504;82;26002;-85
2021/04/06 13:02:42;;;;;;;10.27;2.60;;;;;;;8.63;50.16;99248.75;3537261;82;98139;-84
2021/04/06 13:07:43;;;;;;;7.13;2.00;;;;;;;8.57;48.83;99234.64;3534947;82;25963;-84
2021/04/06 13:12:45;;;;;;;8.27;2.43;;;;;;;8.59;48.31;99244.64;3530755;82;98216;-85
2021/04/06 13:17:46;;;;;;;19.50;6.50;;;;;;;8.75;48.80;99242.30;3543961;82;26431;-85
2021/04/06 13:22:47;;;;;;;11.93;2.30;;;;;;;8.78;46.69;99229.75;3534593;82;98255;-84
2021/04/06 13:27:48;;;;;;;5.80;1.43;;;;;;;8.62;47.59;99242.47;3538176;82;26037;-84
2021/04/06 13:32:48;;;;;;;9.77;3.20;;;;;;;8.49;48.14;99228.17;3520315;80;98082;-84
2021/04/06 13:37:51;;;;;;;12.10;3.40;;;;;;;8.35;47.88;99236.41;3521801;82;26482;-83
2021/04/06 13:42:52;;;;;;;11.10;3.47;;;;;;;8.27;50.34;99245.21;3516891;81;98343;-84
2021/04/06 13:47:52;;;;;;;8.57;3.07;;;;;;;8.14;50.83;99255.53;3525359;82;26589;-83
2021/04/06 13:52:53;;;;;;;9.78;4.05;;;;;;;7.98;54.17;99268.23;3516335;82;98093;-84
2021/04/06 13:57:55;;;;;;;9.20;2.90;;;;;;;7.97;56.00;99271.34;3521084;82;33234;-84
2021/04/06 14:02:56;;;;;;;9.93;2.80;;;;;;;7.81;54.49;99271.67;3519083;80;98189;-84
2021/04/06 14:07:57;;;;;;;9.00;2.57;;;;;;;7.32;55.42;99277.53;3516764;82;33269;-84
2021/04/06 14:12:58;;;;;;;8.83;3.10;;;;;;;6.83;57.82;99298.48;3516898;82;98610;-84
2021/04/06 14:18:01;;;;;;;7.50;2.33;;;;;;;6.46;59.32;99306.00;3521604;82;33377;-83
2021/04/06 14:23:07;;;;;;;9.23;2.10;;;;;;;6.02;60.89;99305.16;3516291;82;98134;-84
2021/04/06 14:28:12;;;;;;;9.07;2.33;;;;;;;5.52;62.23;99296.12;3524480;82;26008;-83
2021/04/06 14:33:16;;;;;;;4.33;1.90;;;;;;;5.38;63.43;99295.16;3532850;82;98563;-83
2021/04/06 14:38:17;;;;;;;3.47;1.30;;;;;;;5.29;64.23;99298.16;3540616;82;33865;-83
2021/04/06 14:43:25;;;;;;;7.83;1.80;;;;;;;5.24;64.18;99284.06;3528846;82;98353;-84
2021/04/06 14:48:27;;;;;;;7.20;2.13;;;;;;;5.30;63.94;99281.98;3539248;82;33292;-83
2021/04/06 14:53:28;;;;;;;8.93;2.23;;;;;;;5.51;63.78;99267.86;3533814;82;98769;-84
2021/04/06 14:58:34;;;;;;;10.03;2.90;;;;;;;5.78;62.72;99259.80;3535478;82;33357;-83
2021/04/06 15:03:35;;;;;;;11.40;3.30;;;;;;;5.94;62.02;99251.61;3538040;82;98395;-86
2021/04/06 15:08:37;;;;;;;8.63;1.90;;;;;;;6.07;61.26;99256.23;3534568;82;34554;-83
2021/04/06 15:13:39;;;;;;;8.87;2.40;;;;;;;6.02;59.91;99251.91;3534828;81;98422;-84
2021/04/06 15:18:45;;;;;;;10.93;2.60;;;;;;;5.93;60.73;99247.88;3537702;82;33813;-83
2021/04/06 15:23:46;;;;;;;9.47;2.27;;;;;;;5.68;61.49;99239.98;3537390;82;98203;-82
2021/04/06 15:28:48;;;;;;;9.97;2.33;;;;;;;5.38;61.19;99229.11;3542148;82;33374;-82
2021/04/06 15:33:48;;;;;;;8.97;2.70;;;;;;;5.19;61.38;99228.48;3522562;80;98156;-82
2021/04/06 15:38:49;;;;;;;8.43;2.77;;;;;;;5.06;61.80;99221.09;3523621;82;33884;-83
2021/04/06 15:43:50;;;;;;;10.13;2.43;;;;;;;4.94;62.44;99209.63;3517805;82;97937;-81
2021/04/06 15:49:11;;;;;;;6.90;2.40;;;;;;;4.86;62.66;99203.88;3519840;82;33483;-81
2021/04/06 15:54:12;;;;;;;10.67;2.70;;;;;;;4.90;63.14;99205.48;3518554;82;98299;-82
2021/04/06 15:59:13;;;;;;;10.63;3.23;;;;;;;4.92;62.52;99206.49;3530625;82;33954;-81
2021/04/06 16:04:14;;;;;;;8.07;2.03;;;;;;;4.91;62.00;99212.51;3510322;82;98378;-82
2021/04/06 16:09:15;;;;;;;8.83;2.72;;;;;;;4.92;61.44;99216.03;3521145;82;33399;-81
2021/04/06 16:14:16;;;;;;;8.37;2.37;;;;;;;4.84;61.60;99223.88;3527189;81;98468;-83
2021/04/06 16:19:17;;;;;;;8.27;2.47;;;;;;;4.80;61.73;99229.28;3524905;82;33309;-82
2021/04/06 16:24:18;;;;;;;6.77;2.63;;;;;;;4.75;61.90;99230.96;3515455;82;98284;-83
2021/04/06 16:29:19;;;;;;;9.53;2.80;;;;;;;4.71;62.05;99236.16;3470502;82;33821;-83
2021/04/06 16:34:20;;;;;;;8.17;3.03;;;;;;;4.66;62.75;99233.75;3503464;82;97760;-82
2021/04/06 16:39:21;;;;;;;8.50;3.03;;;;;;;4.65;62.89;99247.94;3471712;83;33384;-82
2021/04/06 16:44:21;;;;;;;12.93;4.87;;;;;;;4.63;63.54;99244.03;3492709;83;98069;-83
2021/04/06 16:49:22;;;;;;;11.57;4.17;;;;;;;4.57;63.95;99245.47;3558943;82;31727;-85
2021/04/06 16:54:25;;;;;;;8.57;1.97;;;;;;;4.49;64.90;99266.95;3557174;82;98014;-83
2021/04/06 16:59:27;;;;;;;9.00;2.67;;;;;;;4.27;65.08;99269.11;3543103;82;32310;-83
2021/04/06 17:04:28;;;;;;;7.00;2.20;;;;;;;4.18;66.52;99280.80;3547244;82;97854;-83
2021/04/06 17:09:31;;;;;;;7.47;2.67;;;;;;;4.09;68.19;99270.15;3544049;82;31960;-83
2021/04/06 17:14:32;;;;;;;11.80;3.13;;;;;;;4.05;67.47;99283.49;3532764;82;98418;-83
2021/04/06 17:19:33;;;;;;;12.00;3.50;;;;;;;4.00;67.81;99276.42;3543242;82;31963;-83
2021/04/06 17:24:34;;;;;;;8.50;2.00;;;;;;;3.96;67.83;99265.23;3538937;80;98891;-82
2021/04/06 17:29:35;;;;;;;8.87;3.13;;;;;;;3.89;68.40;99258.30;3546060;82;31800;-82
2021/04/06 17:34:36;;;;;;;14.35;3.70;;;;;;;3.76;68.09;99264.48;3539716;81;98462;-83
2021/04/06 17:39:38;;;;;;;12.97;2.97;;;;;;;3.65;68.29;99278.45;3499861;83;31222;-82
2021/04/06 17:44:38;;;;;;;5.87;2.13;;;;;;;3.63;68.73;99275.88;3458173;84;98381;-81
2021/04/06 17:49:39;;;;;;;7.53;2.40;;;;;;;3.55;68.49;99275.53;3468441;82;30137;-82
2021/04/06 17:54:40;;;;;;;7.00;2.40;;;;;;;3.44;68.81;99289.48;3533972;82;98576;-81
2021/04/06 17:59:41;;;;;;;6.50;2.50;;;;;;;3.24;69.34;99292.75;3547166;82;26015;-83
2021/04/06 18:04:41;;;;;;;10.93;2.30;;;;;;;2.99;69.81;99291.41;3543675;82;98171;-82
2021/04/06 18:09:43;;;;;;;9.53;3.40;;;;;;;2.81;70.77;99285.34;3504351;82;35000;-82
2021/04/06 18:14:43;;;;;;;8.80;3.33;;;;;;;2.75;71.41;99299.78;3427889;82;98315;-83
2021/04/06 18:19:44;;;;;;;10.03;4.80;;;;;;;2.66;71.25;99295.09;3427406;84;34979;-83
2021/04/06 18:24:46;;;;;;;13.40;5.20;;;;;;;2.52;71.75;99302.12;3424023;82;98259;-83
2021/04/06 18:29:46;;;;;;;9.90;4.47;;;;;;;2.44;72.05;99301.70;3436785;83;35470;-81
2021/04/06 18:34:47;;;;;;;11.87;3.97;;;;;;;2.24;73.12;99291.91;3450004;83;98173;-83
2021/04/06 18:39:48;;;;;;;12.80;5.23;;;;;;;2.25;72.85;99313.25;3445931;84;35329;-82
2021/04/06 18:44:49;;;;;;;13.85;5.45;;;;;;;2.18;73.34;99313.66;3495779;79;98270;-82
2021/04/06 18:49:49;;;;;;;15.63;4.93;;;;;;;2.14;73.15;99314.91;3483952;83;33169;-82
2021/04/06 18:54:51;;;;;;;13.53;4.43;;;;;;;2.10;73.52;99318.11;3505278;82;98441;-82
2021/04/06 18:59:53;;;;;;;12.20;4.30;;;;;;;1.95;74.12;99318.06;3491411;83;32749;-82
2021/04/06 19:04:54;;;;;;;14.70;5.83;;;;;;;1.92;73.89;99309.27;3541317;80;98248;-80
2021/04/06 19:09:55;;;;;;;18.83;6.80;;;;;;;1.97;73.89;99310.38;3553011;81;33016;-82
2021/04/06 19:14:56;;;;;;;15.90;7.93;;;;;;;2.03;73.98;99316.55;3505587;82;98684;-82
2021/04/06 19:19:57;;;;;;;21.60;8.47;;;;;;;2.00;73.98;99324.05;3510168;81;33238;-79
2021/04/06 19:24:58;;;;;;;18.90;6.70;;;;;;;1.91;74.22;99323.98;3462597;83;98419;-81
2021/04/06 19:29:58;;;;;;;13.27;6.17;;;;;;;1.74;74.57;99320.98;3563049;81;32707;-81
2021/04/06 19:34:59;;;;;;;18.80;7.17;;;;;;;1.62;75.15;99320.23;3584943;80;98484;-82
2021/04/06 19:40:00;;;;;;;23.80;9.00;;;;;;;1.54;76.00;99313.05;3584245;79;30879;-81
2021/04/06 19:45:01;;;;;;;20.12;8.05;;;;;;;1.51;76.30;99322.66;3581738;80;98291;-83
2021/04/06 19:50:05;;;;;;;28.47;9.33;;;;;;;1.51;76.76;99319.15;3581975;80;26497;-81
2021/04/06 19:55:08;;;;;;;20.70;8.57;;;;;;;1.46;76.77;99323.45;3575301;79;98472;-82
2021/04/06 20:00:14;;;;;;;20.37;7.17;;;;;;;1.39;77.53;99321.90;3589243;81;28251;-82
2021/04/06 20:05:15;;;;;;;22.40;7.17;;;;;;;1.36;77.85;99309.02;3578646;80;98316;-81
2021/04/06 20:10:18;;;;;;;15.43;7.27;;;;;;;1.34;78.81;99305.32;3585232;81;27667;-82
2021/04/06 20:15:24;;;;;;;14.97;6.67;;;;;;;1.31;78.92;99304.64;3559741;80;98402;-82
2021/04/06 20:20:36;;;;;;;12.35;5.53;;;;;;;1.27;78.92;99304.32;3587179;80;27455;-82
2021/04/06 20:25:38;;;;;;;16.40;5.97;;;;;;;1.27;79.20;99304.32;3584873;80;98238;-82
2021/04/06 20:30:49;;;;;;;14.37;6.43;;;;;;;1.32;79.08;99314.92;3587184;81;27565;-82
2021/04/06 20:35:43;;;;;;;17.77;5.67;;;;;;;1.34;79.23;99312.09;3577828;80;98012;-82
2021/04/06 20:40:45;;;;;;;18.03;5.57;;;;;;;1.31;79.57;99318.77;3607397;80;25886;-81
2021/04/06 20:45:46;;;;;;;11.80;3.72;;;;;;;1.24;80.49;99319.89;3599629;80;98131;-82
2021/04/06 20:50:47;;;;;;;10.07;3.70;;;;;;;1.18;80.50;99320.71;3602248;80;26181;-82
2021/04/06 20:55:50;;;;;;;10.83;3.83;;;;;;;1.20;80.48;99313.61;3587738;80;98139;-82
2021/04/06 21:00:52;;;;;;;11.53;3.40;;;;;;;1.23;80.69;99326.45;3609523;80;28449;-82
2021/04/06 21:05:53;;;;;;;10.10;4.15;;;;;;;1.22;80.72;99312.69;3599384;80;98140;-82
2021/04/06 21:10:55;;;;;;;8.10;3.00;;;;;;;1.17;80.51;99312.36;3607481;80;27534;-82
2021/04/06 21:15:56;;;;;;;9.28;3.30;;;;;;;1.11;80.43;99320.47;3593442;80;97913;-82
2021/04/06 21:20:57;;;;;;;9.43;3.20;;;;;;;1.10;80.55;99318.13;3599676;80;26002;-83
2021/04/06 21:25:58;;;;;;;6.93;2.77;;;;;;;1.11;80.61;99309.64;3600590;80;98011;-83
2021/04/06 21:30:58;;;;;;;11.43;4.95;;;;;;;1.12;80.76;99308.53;3608367;80;26590;-82
2021/04/06 21:35:59;;;;;;;9.90;3.22;;;;;;;1.11;80.90;99304.22;3580988;79;98234;-82
2021/04/06 21:41:01;;;;;;;10.77;3.40;;;;;;;1.06;81.05;99309.90;3588939;81;26600;-82
2021/04/06 21:46:02;;;;;;;9.93;3.17;;;;;;;1.00;81.00;99305.05;3584588;80;98176;-81
2021/04/06 21:51:03;;;;;;;10.93;3.67;;;;;;;1.00;81.36;99313.17;3587941;81;26067;-81
2021/04/06 21:56:05;;;;;;;8.93;3.77;;;;;;;1.01;81.37;99314.75;3580251;78;98072;-82
2021/04/06 22:01:06;;;;;;;11.83;5.23;;;;;;;0.99;81.48;99311.60;3586473;81;26472;-81
2021/04/06 22:06:07;;;;;;;10.98;4.53;;;;;;;0.95;81.58;99313.41;3557604;81;98573;-82
2021/04/06 22:11:08;;;;;;;12.23;4.20;;;;;;;0.91;81.33;99309.78;3582256;81;26645;-81
2021/04/06 22:16:09;;;;;;;12.17;4.23;;;;;;;0.89;81.87;99306.64;3584418;80;97991;-82
2021/04/06 22:21:10;;;;;;;9.60;3.70;;;;;;;0.89;81.41;99303.94;3578687;81;33377;-82
2021/04/06 22:26:12;;;;;;;13.40;4.47;;;;;;;0.83;81.16;99297.17;3582191;79;98142;-82
2021/04/06 22:31:16;;;;;;;16.77;6.20;;;;;;;0.75;81.36;99296.70;3586648;81;33329;-83
2021/04/06 22:36:17;;;;;;;11.12;4.28;;;;;;;0.61;81.64;99288.93;3537533;81;98203;-83
2021/04/06 22:41:18;;;;;;;12.63;5.33;;;;;;;0.58;81.77;99288.83;3551894;82;33346;-83
2021/04/06 22:46:19;;;;;;;11.83;4.83;;;;;;;0.52;82.34;99280.16;3541814;81;97740;-82
2021/04/06 22:51:20;;;;;;;13.17;5.47;;;;;;;0.54;82.77;99293.33;3550206;82;33332;-83
2021/04/06 22:56:21;;;;;;;14.33;5.13;;;;;;;0.51;82.08;99298.08;3543579;81;98117;-83
2021/04/06 23:01:22;;;;;;;15.27;5.57;;;;;;;0.43;82.19;99301.11;3548534;82;34453;-83
2021/04/06 23:06:22;;;;;;;12.60;4.90;;;;;;;0.37;82.61;99297.60;3544553;82;97879;-83
2021/04/06 23:11:25;;;;;;;12.43;4.90;;;;;;;0.34;82.58;99294.23;3550090;82;28632;-84
2021/04/06 23:16:25;;;;;;;15.33;4.57;;;;;;;0.31;82.80;99291.64;3543331;80;98161;-84
2021/04/06 23:21:26;;;;;;;15.97;4.73;;;;;;;0.25;82.98;99297.05;3550487;81;29570;-83
2021/04/06 23:26:27;;;;;;;13.20;4.07;;;;;;;0.28;83.05;99294.23;3539394;82;97818;-82
2021/04/06 23:31:28;;;;;;;10.53;4.20;;;;;;;0.33;83.56;99292.66;3502818;83;31713;-84
2021/04/06 23:36:28;;;;;;;9.83;3.67;;;;;;;0.31;83.01;99295.70;3450203;83;98136;-84
2021/04/06 23:41:29;;;;;;;9.83;3.93;;;;;;;0.30;83.07;99296.83;3474661;83;31737;-83
2021/04/06 23:46:30;;;;;;;12.40;4.03;;;;;;;0.25;83.09;99296.25;3482052;82;97910;-84
2021/04/06 23:51:31;;;;;;;10.97;3.57;;;;;;;0.21;83.00;99301.54;3511214;82;29473;-82
2021/04/06 23:56:32;;;;;;;9.90;3.97;;;;;;;0.22;83.39;99300.98;3517594;80;98237;-83
